Terminal Aerodrome Forecast
Issued by NWS

Home | Current Version | Previous Version | Text Only | Print | Product List | Glossary On
Versions: 1 2 3 4 5 6 7 8 9 10 11 12 13 14 15 16
000
FTUS42 TJSJ 182300
TAFIST
TAF
TIST 182320Z 1900/1924 06012KT P6SM -RA FEW022 BKN050 BKN080
     FM190500 05007KT P6SM VCSH SCT025 SCT040 PROB30 1909/1913 -SHRA
      BKN025
     FM191500 09013KT P6SM SCT030
      AMD NOT SKED=

USA.gov is the U.S. government's official web portal to all federal, state and local government web resources and services.